createdAt,value
2018-05-18T00:00:22.302Z,99.90
2018-05-18T00:02:51.754Z,99.90
2018-05-18T00:05:21.131Z,99.90
2018-05-18T00:07:51.350Z,99.90
2018-05-18T00:10:21.143Z,99.90
2018-05-18T00:12:50.382Z,99.90
2018-05-18T00:15:20.152Z,99.90
2018-05-18T00:17:49.387Z,99.90
2018-05-18T00:20:24.698Z,99.90
2018-05-18T00:22:53.944Z,99.90
2018-05-18T00:25:23.506Z,99.90
2018-05-18T00:27:52.903Z,99.90
2018-05-18T00:30:22.311Z,99.90
2018-05-18T00:32:51.700Z,99.90
2018-05-18T00:35:21.346Z,99.90
2018-05-18T00:37:50.639Z,99.90
2018-05-18T00:40:20.635Z,99.90
2018-05-18T00:42:50.047Z,99.90
2018-05-18T00:45:19.283Z,99.90
2018-05-18T00:47:48.850Z,99.90
2018-05-18T00:50:18.330Z,99.90
2018-05-18T00:52:48.479Z,99.90
2018-05-18T00:55:35.801Z,99.90
2018-05-18T00:58:05.312Z,99.90
2018-05-18T01:00:34.544Z,99.90
2018-05-18T01:03:03.878Z,99.90
2018-05-18T01:05:33.530Z,99.90
2018-05-18T01:08:02.766Z,99.90
2018-05-18T01:10:32.007Z,99.90
2018-05-18T01:13:01.631Z,99.90
2018-05-18T01:15:30.905Z,99.90
2018-05-18T01:18:00.546Z,99.90
2018-05-18T01:20:30.071Z,99.90
2018-05-18T01:22:59.800Z,99.90
2018-05-18T01:25:29.031Z,99.90
2018-05-18T01:27:59.174Z,99.90
2018-05-18T01:30:28.607Z,99.90
2018-05-18T01:32:57.843Z,99.90
2018-05-18T01:35:27.491Z,99.90
2018-05-18T01:37:56.719Z,99.90
2018-05-18T01:40:25.963Z,99.90
2018-05-18T01:42:55.796Z,99.90
2018-05-18T01:45:33.730Z,99.90
2018-05-18T01:48:03.892Z,99.90
2018-05-18T01:50:34.164Z,99.90
2018-05-18T01:53:03.743Z,99.90
2018-05-18T01:55:34.179Z,99.90
2018-05-18T01:58:04.095Z,99.90
2018-05-18T02:00:33.940Z,99.90
2018-05-18T02:03:03.719Z,99.90
2018-05-18T02:05:33.234Z,99.90
2018-05-18T02:08:02.471Z,99.90
2018-05-18T02:10:32.239Z,99.90
2018-05-18T02:13:01.494Z,99.90
2018-05-18T02:15:30.760Z,99.90
2018-05-18T02:18:00.554Z,99.90
2018-05-18T02:20:30.400Z,99.90
2018-05-18T02:22:59.639Z,99.90
2018-05-18T02:25:29.150Z,99.90
2018-05-18T02:27:59.203Z,99.90
2018-05-18T02:30:29.723Z,99.90
2018-05-18T02:32:59.235Z,99.90
2018-05-18T02:35:29.756Z,99.90
2018-05-18T02:37:59.307Z,99.90
2018-05-18T02:40:28.583Z,99.90
2018-05-18T02:42:58.475Z,99.90
2018-05-18T02:45:28.752Z,99.90
2018-05-18T02:47:58.522Z,99.90
2018-05-18T02:50:28.224Z,99.90
2018-05-18T02:52:58.343Z,99.90
2018-05-18T02:55:27.848Z,99.90
2018-05-18T02:57:57.084Z,99.90
2018-05-18T03:00:26.966Z,99.90
2018-05-18T03:02:56.203Z,99.90
2018-05-18T03:05:25.439Z,99.90
2018-05-18T03:07:55.796Z,99.90
2018-05-18T03:10:25.031Z,99.90
2018-05-18T03:12:54.260Z,99.90
2018-05-18T03:15:24.716Z,99.90
2018-05-18T03:17:54.707Z,99.90
2018-05-18T03:20:24.221Z,99.90
2018-05-18T03:22:53.818Z,99.90
2018-05-18T03:25:23.066Z,99.90
2018-05-18T03:27:52.839Z,99.90
2018-05-18T03:30:22.714Z,99.90
2018-05-18T03:32:52.482Z,99.90
2018-05-18T03:35:22.551Z,99.90
2018-05-18T03:37:52.932Z,99.90
2018-05-18T03:40:22.843Z,99.90
2018-05-18T03:42:53.374Z,99.90
2018-05-18T03:45:22.910Z,99.90
2018-05-18T03:47:52.151Z,99.90
2018-05-18T03:50:21.772Z,99.90
2018-05-18T03:52:51.007Z,99.90
2018-05-18T03:55:20.233Z,99.90
2018-05-18T03:57:49.894Z,99.90
2018-05-18T04:00:19.130Z,99.90
2018-05-18T04:03:06.414Z,99.90
2018-05-18T04:05:53.375Z,99.90
2018-05-18T04:11:33.143Z,99.90
2018-05-18T04:14:02.824Z,99.90
2018-05-18T04:16:32.896Z,99.90
2018-05-18T04:19:02.555Z,99.90
2018-05-18T04:21:32.863Z,99.90
2018-05-18T04:24:02.379Z,99.90
2018-05-18T04:26:32.698Z,99.90
2018-05-18T04:29:02.212Z,99.90
2018-05-18T04:31:32.129Z,99.90
2018-05-18T04:34:02.449Z,99.90
2018-05-18T04:36:31.958Z,99.90
2018-05-18T04:39:01.189Z,99.90
2018-05-18T04:41:31.857Z,99.90
2018-05-18T04:44:01.137Z,99.90
2018-05-18T04:46:30.386Z,99.90
2018-05-18T04:49:00.191Z,99.90
2018-05-18T04:51:29.579Z,99.90
2018-05-18T04:53:58.831Z,99.90
2018-05-18T04:56:28.383Z,99.90
2018-05-18T04:58:58.212Z,99.90
2018-05-18T05:01:28.708Z,99.90
2018-05-18T05:03:58.559Z,99.90
2018-05-18T05:06:27.799Z,99.90
2018-05-18T05:08:57.377Z,99.90
2018-05-18T05:11:27.394Z,99.90
2018-05-18T05:13:56.632Z,99.90
2018-05-18T05:16:26.508Z,99.90
2018-05-18T05:18:55.744Z,99.90
2018-05-18T05:21:25.348Z,99.90
2018-05-18T05:23:55.015Z,99.90
2018-05-18T05:26:24.251Z,99.90
2018-05-18T05:28:53.496Z,99.90
2018-05-18T05:31:23.131Z,99.90
2018-05-18T05:33:52.722Z,99.90
2018-05-18T05:36:21.966Z,99.90
2018-05-18T05:38:51.646Z,99.90
2018-05-18T05:41:20.895Z,99.90
2018-05-18T05:43:50.240Z,99.90
2018-05-18T05:46:19.907Z,99.90
2018-05-18T05:48:49.155Z,99.90
2018-05-18T05:51:18.429Z,99.90
2018-05-18T05:53:48.081Z,99.90
2018-05-18T05:56:18.094Z,99.90
2018-05-18T05:58:47.890Z,99.90
2018-05-18T06:01:17.395Z,99.90
2018-05-18T06:03:46.703Z,99.90
2018-05-18T06:06:17.023Z,99.90
2018-05-18T06:08:46.448Z,99.90
2018-05-18T06:11:15.659Z,99.90
2018-05-18T06:13:45.232Z,99.90
2018-05-18T06:16:14.467Z,99.90
2018-05-18T06:18:43.847Z,99.90
2018-05-18T06:21:14.258Z,99.90
2018-05-18T06:23:43.504Z,99.90
2018-05-18T06:26:12.755Z,99.90
2018-05-18T06:28:42.279Z,99.90
2018-05-18T06:31:11.507Z,99.90
2018-05-18T06:33:41.587Z,99.90
2018-05-18T06:36:11.398Z,99.90
2018-05-18T06:38:41.149Z,99.90
2018-05-18T06:41:10.633Z,99.90
2018-05-18T06:43:40.122Z,99.90
2018-05-18T06:46:09.363Z,99.90
2018-05-18T06:48:38.910Z,99.90
2018-05-18T06:51:08.434Z,99.90
2018-05-18T06:53:37.994Z,99.90
2018-05-18T06:56:07.231Z,99.90
2018-05-18T06:58:37.237Z,99.90
2018-05-18T07:01:06.590Z,99.90
2018-05-18T07:03:35.814Z,99.90
2018-05-18T07:06:05.307Z,99.90
2018-05-18T07:08:34.543Z,99.90
2018-05-18T07:11:04.035Z,99.90
2018-05-18T07:13:34.797Z,99.90
2018-05-18T07:16:04.028Z,99.90
2018-05-18T07:18:33.272Z,99.90
2018-05-18T07:21:02.845Z,99.90
2018-05-18T07:23:32.079Z,99.90
2018-05-18T07:26:01.339Z,99.90
2018-05-18T07:28:30.914Z,99.90
2018-05-18T07:31:00.405Z,99.90
2018-05-18T07:33:29.640Z,99.90
2018-05-18T07:35:59.763Z,99.90
2018-05-18T07:38:29.423Z,99.90
2018-05-18T07:40:58.658Z,99.90
2018-05-18T07:43:28.360Z,99.90
2018-05-18T07:45:58.943Z,99.90
2018-05-18T07:48:28.608Z,99.90
2018-05-18T07:50:58.118Z,99.90
2018-05-18T07:53:27.571Z,99.90
2018-05-18T07:55:57.534Z,99.90
2018-05-18T07:58:26.766Z,99.90
2018-05-18T08:00:56.046Z,99.90
2018-05-18T08:03:26.052Z,99.90
2018-05-18T08:05:55.286Z,99.90
2018-05-18T08:08:26.309Z,99.90
2018-05-18T08:10:56.330Z,99.90
2018-05-18T08:13:25.607Z,99.90
2018-05-18T08:15:55.232Z,99.90
2018-05-18T08:18:25.321Z,99.90
2018-05-18T08:20:54.575Z,99.90
2018-05-18T08:26:21.102Z,99.90
2018-05-18T08:29:09.049Z,99.90
2018-05-18T08:31:39.051Z,99.90
2018-05-18T08:34:08.287Z,99.90
2018-05-18T08:36:37.879Z,99.90
2018-05-18T08:39:07.555Z,99.90
2018-05-18T08:41:36.796Z,99.90
2018-05-18T08:44:07.312Z,99.90
2018-05-18T08:46:37.335Z,99.90
2018-05-18T08:49:06.579Z,99.90
2018-05-18T08:51:36.299Z,99.90
2018-05-18T08:54:06.367Z,99.90
2018-05-18T08:56:35.755Z,99.90
2018-05-18T08:59:05.305Z,99.90
2018-05-18T09:01:34.551Z,99.90
2018-05-18T09:04:04.559Z,99.90
2018-05-18T09:06:34.075Z,99.90
2018-05-18T09:09:03.346Z,99.90
2018-05-18T09:11:32.578Z,99.90
2018-05-18T09:14:02.196Z,99.90
2018-05-18T09:16:32.210Z,99.90
2018-05-18T09:19:01.451Z,99.90
2018-05-18T09:21:31.726Z,99.90
2018-05-18T09:24:00.990Z,99.90
2018-05-18T09:29:05.771Z,99.90
2018-05-18T09:31:35.372Z,99.90
2018-05-18T09:34:05.819Z,99.90
2018-05-18T09:36:35.723Z,99.90
2018-05-18T09:39:05.230Z,99.90
2018-05-18T09:41:35.144Z,99.90
2018-05-18T09:44:05.675Z,99.90
2018-05-18T09:46:35.196Z,99.90
2018-05-18T09:49:05.516Z,99.90
2018-05-18T09:51:35.008Z,99.90
2018-05-18T09:54:04.317Z,99.90
2018-05-18T09:56:33.819Z,99.90
2018-05-18T09:59:03.067Z,99.90
2018-05-18T10:01:32.303Z,99.90
2018-05-18T10:04:01.941Z,99.90
2018-05-18T10:06:31.173Z,99.90
2018-05-18T10:09:00.559Z,99.90
2018-05-18T10:11:30.258Z,99.90
2018-05-18T10:14:00.272Z,99.90
2018-05-18T10:16:29.503Z,99.90
2018-05-18T10:18:59.168Z,99.90
2018-05-18T10:21:28.403Z,99.90
2018-05-18T10:23:57.659Z,99.90
2018-05-18T10:26:27.488Z,99.90
2018-05-18T10:28:57.071Z,99.90
2018-05-18T10:31:26.518Z,99.90
2018-05-18T10:33:56.186Z,99.90
2018-05-18T10:36:25.426Z,99.90
2018-05-18T10:38:55.079Z,99.70
2018-05-18T10:41:24.724Z,99.90
2018-05-18T10:43:54.431Z,99.90
2018-05-18T10:46:24.954Z,99.90
2018-05-18T10:48:54.474Z,99.90
2018-05-18T10:51:24.999Z,99.90
2018-05-18T10:53:54.504Z,99.90
2018-05-18T10:56:23.735Z,99.90
2018-05-18T10:58:53.510Z,99.90
2018-05-18T11:01:22.862Z,99.90
2018-05-18T11:03:52.107Z,99.90
2018-05-18T11:06:21.624Z,99.90
2018-05-18T11:08:50.862Z,99.90
2018-05-18T11:11:20.102Z,99.90
2018-05-18T11:13:49.996Z,99.90
2018-05-18T11:16:19.167Z,99.90
2018-05-18T11:18:48.599Z,99.90
2018-05-18T11:21:19.190Z,99.90
2018-05-18T11:23:48.419Z,99.90
2018-05-18T11:26:17.715Z,99.90
2018-05-18T11:28:47.360Z,99.90
2018-05-18T11:31:16.599Z,99.90
2018-05-18T11:33:46.603Z,99.90
2018-05-18T11:36:16.160Z,99.90
2018-05-18T11:38:45.402Z,99.90
2018-05-18T11:41:14.648Z,99.90
2018-05-18T11:43:44.311Z,99.90
2018-05-18T11:46:13.937Z,99.90
2018-05-18T11:48:43.150Z,99.90
2018-05-18T11:51:12.830Z,99.90
2018-05-18T11:53:42.652Z,99.90
2018-05-18T11:56:12.657Z,99.90
2018-05-18T11:58:42.164Z,99.90
2018-05-18T12:01:11.675Z,99.90
2018-05-18T12:03:42.005Z,99.60
2018-05-18T12:06:11.226Z,99.90
2018-05-18T12:08:40.553Z,99.90
2018-05-18T12:11:09.994Z,99.90
2018-05-18T12:13:39.235Z,99.90
2018-05-18T12:16:09.762Z,99.90
2018-05-18T12:18:39.307Z,99.90
2018-05-18T12:21:08.572Z,99.30
2018-05-18T12:23:38.866Z,99.50
2018-05-18T12:26:08.412Z,98.90
2018-05-18T12:28:38.935Z,98.40
2018-05-18T12:31:08.494Z,98.90
2018-05-18T12:33:37.737Z,98.90
2018-05-18T12:36:07.716Z,99.00
2018-05-18T12:38:37.451Z,99.00
2018-05-18T12:41:07.755Z,99.40
2018-05-18T12:43:37.268Z,99.40
2018-05-18T12:46:06.507Z,99.60
2018-05-18T12:48:36.479Z,99.90
2018-05-18T12:51:05.718Z,99.90
2018-05-18T12:53:34.950Z,99.90
2018-05-18T12:56:04.612Z,99.90
2018-05-18T12:58:34.624Z,99.90
2018-05-18T13:01:04.419Z,99.90
2018-05-18T13:03:34.344Z,99.90
2018-05-18T13:06:03.583Z,99.80
2018-05-18T13:08:34.138Z,99.90
2018-05-18T13:11:04.144Z,99.90
2018-05-18T13:13:33.534Z,99.90
2018-05-18T13:16:03.232Z,99.90
2018-05-18T13:18:33.742Z,99.70
2018-05-18T13:21:03.230Z,99.70
2018-05-18T13:23:32.735Z,99.60
2018-05-18T13:26:01.966Z,99.60
2018-05-18T13:28:32.155Z,99.70
2018-05-18T13:31:01.400Z,99.70
2018-05-18T13:33:30.631Z,99.70
2018-05-18T13:36:00.260Z,99.80
2018-05-18T13:38:29.545Z,99.60
2018-05-18T13:41:00.507Z,99.80
2018-05-18T13:43:30.013Z,99.80
2018-05-18T13:45:59.954Z,99.40
2018-05-18T13:48:30.252Z,99.70
2018-05-18T13:50:59.878Z,99.70
2018-05-18T13:53:29.084Z,99.80
2018-05-18T13:56:00.406Z,99.90
2018-05-18T13:58:29.651Z,99.90
2018-05-18T14:00:58.882Z,99.90
2018-05-18T14:03:28.515Z,99.90
2018-05-18T14:05:57.755Z,99.90
2018-05-18T14:08:26.999Z,99.90
2018-05-18T14:10:57.075Z,99.90
2018-05-18T14:13:26.258Z,99.90
2018-05-18T14:15:55.517Z,99.90
2018-05-18T14:18:25.210Z,99.80
2018-05-18T14:20:54.471Z,99.90
2018-05-18T14:23:23.935Z,99.10
2018-05-18T14:25:53.447Z,99.40
2018-05-18T14:28:22.694Z,99.20
2018-05-18T14:30:51.942Z,99.50
2018-05-18T14:33:21.645Z,99.50
2018-05-18T14:35:50.806Z,99.80
2018-05-18T14:38:20.055Z,99.40
2018-05-18T14:40:49.688Z,99.90
2018-05-18T14:43:18.970Z,99.70
2018-05-18T14:45:48.246Z,99.40
2018-05-18T14:48:18.387Z,98.90
2018-05-18T14:50:48.280Z,99.40
2018-05-18T14:53:17.898Z,99.70
2018-05-18T14:55:48.342Z,99.70
2018-05-18T14:58:17.747Z,99.70
2018-05-18T15:00:46.991Z,99.90
2018-05-18T15:03:16.883Z,99.90
2018-05-18T15:05:47.041Z,99.90
2018-05-18T15:08:16.927Z,99.80
2018-05-18T15:10:46.415Z,99.50
2018-05-18T15:13:17.345Z,99.20
2018-05-18T15:15:48.477Z,99.90
2018-05-18T15:18:17.996Z,99.80
2018-05-18T15:20:47.520Z,99.50
2018-05-18T15:23:16.923Z,99.30
2018-05-18T15:25:46.471Z,99.70
2018-05-18T15:28:15.715Z,99.80
2018-05-18T15:30:45.111Z,99.50
2018-05-18T15:33:15.429Z,99.90
2018-05-18T15:35:44.666Z,99.90
2018-05-18T15:38:14.583Z,99.90
2018-05-18T15:40:44.782Z,99.90
2018-05-18T15:43:14.787Z,99.90
2018-05-18T15:45:46.031Z,99.90
2018-05-18T15:48:15.478Z,99.90
2018-05-18T15:50:44.727Z,99.90
2018-05-18T15:53:15.171Z,99.90
2018-05-18T15:55:45.919Z,99.90
2018-05-18T15:58:17.044Z,99.90
2018-05-18T16:00:47.026Z,99.90
2018-05-18T16:03:16.678Z,99.90
2018-05-18T16:05:46.596Z,99.90
2018-05-18T16:08:16.908Z,99.90
2018-05-18T16:10:46.417Z,99.90
2018-05-18T16:13:15.659Z,99.90
2018-05-18T16:15:45.251Z,99.90
2018-05-18T16:18:14.755Z,99.90
2018-05-18T16:20:44.762Z,99.90
2018-05-18T16:23:14.358Z,99.90
2018-05-18T16:25:43.649Z,99.90
2018-05-18T16:28:12.867Z,99.90
2018-05-18T16:30:42.485Z,99.90
2018-05-18T16:33:13.186Z,99.90
2018-05-18T16:35:42.920Z,99.90
2018-05-18T16:38:13.240Z,99.90
2018-05-18T16:40:42.762Z,99.90
2018-05-18T16:43:12.477Z,99.90
2018-05-18T16:45:42.786Z,99.90
2018-05-18T16:48:12.278Z,99.90
2018-05-18T16:50:41.529Z,99.90
2018-05-18T16:53:11.082Z,99.90
2018-05-18T16:55:40.365Z,99.90
2018-05-18T16:58:10.026Z,99.90
2018-05-18T17:00:39.842Z,99.90
2018-05-18T17:03:10.064Z,99.90
2018-05-18T17:05:39.843Z,99.90
2018-05-18T17:08:09.589Z,99.90
2018-05-18T17:10:40.910Z,99.90
2018-05-18T17:13:12.638Z,99.90
2018-05-18T17:15:42.381Z,99.90
2018-05-18T17:18:11.619Z,99.90
2018-05-18T17:20:40.894Z,99.90
2018-05-18T17:23:10.700Z,99.90
2018-05-18T17:25:40.791Z,99.90
2018-05-18T17:28:10.399Z,99.90
2018-05-18T17:30:40.841Z,99.90
2018-05-18T17:33:10.469Z,99.90
2018-05-18T17:35:40.128Z,99.90
2018-05-18T17:38:09.369Z,99.90
2018-05-18T17:40:39.067Z,99.90
2018-05-18T17:43:08.811Z,99.90
2018-05-18T17:45:38.083Z,99.90
2018-05-18T17:48:07.792Z,99.90
2018-05-18T17:50:37.050Z,99.90
2018-05-18T17:53:07.220Z,99.90
2018-05-18T17:55:36.929Z,99.90
2018-05-18T17:58:06.811Z,99.90
2018-05-18T18:00:36.974Z,99.90
2018-05-18T18:03:06.996Z,99.90
2018-05-18T18:05:36.584Z,99.90
2018-05-18T18:08:06.105Z,99.90
2018-05-18T18:10:35.346Z,99.90
2018-05-18T18:13:04.899Z,99.90
2018-05-18T18:15:34.131Z,99.90
2018-05-18T18:18:03.724Z,99.90
2018-05-18T18:20:34.029Z,99.90
2018-05-18T18:23:03.307Z,99.90
2018-05-18T18:25:32.551Z,99.90
2018-05-18T18:28:02.631Z,99.90
2018-05-18T18:30:31.937Z,99.90
2018-05-18T18:33:01.527Z,99.90
2018-05-18T18:35:31.116Z,99.90
2018-05-18T18:38:00.963Z,99.90
2018-05-18T18:40:30.197Z,99.90
2018-05-18T18:42:59.807Z,99.90
2018-05-18T18:45:29.825Z,99.90
2018-05-18T18:47:59.623Z,99.90
2018-05-18T18:50:29.130Z,99.90
2018-05-18T18:52:59.448Z,99.90
2018-05-18T18:55:28.959Z,99.90
2018-05-18T18:57:58.475Z,99.90
2018-05-18T19:00:28.935Z,99.90
2018-05-18T19:02:58.590Z,99.90
2018-05-18T19:05:27.835Z,99.90
2018-05-18T19:07:57.529Z,99.90
2018-05-18T19:10:26.911Z,99.90
2018-05-18T19:12:56.144Z,99.90
2018-05-18T19:15:25.755Z,99.90
2018-05-18T19:17:56.970Z,99.90
2018-05-18T19:20:26.784Z,99.90
2018-05-18T19:22:56.923Z,99.90
2018-05-18T19:25:28.458Z,99.90
2018-05-18T19:27:57.690Z,99.90
2018-05-18T19:30:28.529Z,99.90
2018-05-18T19:32:58.829Z,99.90
2018-05-18T19:35:28.531Z,99.90
2018-05-18T19:37:58.656Z,99.90
2018-05-18T19:40:29.582Z,99.90
2018-05-18T19:42:59.923Z,99.90
2018-05-18T19:45:30.238Z,99.90
2018-05-18T19:47:59.562Z,99.90
2018-05-18T19:50:28.809Z,99.90
2018-05-18T19:52:59.155Z,99.90
2018-05-18T19:55:28.399Z,99.90
2018-05-18T19:57:57.651Z,99.90
2018-05-18T20:00:27.272Z,99.90
2018-05-18T20:02:56.523Z,99.90
2018-05-18T20:05:26.279Z,99.90
2018-05-18T20:07:56.420Z,99.90
2018-05-18T20:10:26.847Z,99.90
2018-05-18T20:12:56.646Z,99.90
2018-05-18T20:15:26.891Z,99.90
2018-05-18T20:17:56.696Z,99.90
2018-05-18T20:20:26.999Z,99.90
2018-05-18T20:22:56.535Z,99.90
2018-05-18T20:25:26.022Z,99.90
2018-05-18T20:27:56.131Z,99.90
2018-05-18T20:30:25.634Z,99.90
2018-05-18T20:32:55.524Z,99.90
2018-05-18T20:35:24.780Z,99.90
2018-05-18T20:37:54.335Z,99.90
2018-05-18T20:40:24.183Z,99.90
2018-05-18T20:42:53.418Z,99.90
2018-05-18T20:45:23.088Z,99.90
2018-05-18T20:47:52.332Z,99.90
2018-05-18T20:50:22.092Z,99.90
2018-05-18T20:52:53.142Z,99.90
2018-05-18T20:55:22.599Z,99.90
2018-05-18T20:57:51.852Z,99.90
2018-05-18T21:00:21.455Z,99.90
2018-05-18T21:02:50.807Z,99.90
2018-05-18T21:05:20.255Z,99.90
2018-05-18T21:07:50.335Z,99.90
2018-05-18T21:10:19.971Z,99.90
2018-05-18T21:12:49.212Z,99.90
2018-05-18T21:15:20.129Z,99.90
2018-05-18T21:17:49.779Z,99.90
2018-05-18T21:20:19.746Z,99.90
2018-05-18T21:22:49.878Z,99.90
2018-05-18T21:25:21.216Z,99.90
2018-05-18T21:27:50.862Z,99.90
2018-05-18T21:30:20.848Z,99.90
2018-05-18T21:32:51.166Z,99.90
2018-05-18T21:35:20.406Z,99.90
2018-05-18T21:37:50.419Z,99.90
2018-05-18T21:40:20.509Z,99.90
2018-05-18T21:42:49.753Z,99.90
2018-05-18T21:45:18.986Z,99.90
2018-05-18T21:47:48.618Z,99.90
2018-05-18T21:50:17.854Z,99.90
2018-05-18T21:52:47.415Z,99.90
2018-05-18T21:55:17.193Z,99.90
2018-05-18T21:57:46.475Z,99.90
2018-05-18T22:00:16.094Z,99.90
2018-05-18T22:02:45.344Z,99.90
2018-05-18T22:05:14.584Z,99.90
2018-05-18T22:07:44.252Z,99.90
2018-05-18T22:10:14.559Z,99.90
2018-05-18T22:12:44.691Z,99.90
2018-05-18T22:15:14.606Z,99.90
2018-05-18T22:17:44.532Z,99.90
2018-05-18T22:20:14.284Z,99.90
2018-05-18T22:22:43.519Z,99.90
2018-05-18T22:25:13.867Z,99.90
2018-05-18T22:27:44.303Z,99.90
2018-05-18T22:30:14.109Z,99.90
2018-05-18T22:32:44.551Z,99.90
2018-05-18T22:35:14.543Z,99.90
2018-05-18T22:37:43.791Z,99.90
2018-05-18T22:40:13.048Z,99.90
2018-05-18T22:42:43.338Z,99.90
2018-05-18T22:45:13.353Z,99.90
2018-05-18T22:47:42.583Z,99.90
2018-05-18T22:50:12.928Z,99.90
2018-05-18T22:52:42.927Z,99.90
2018-05-18T22:55:13.356Z,99.90
2018-05-18T22:57:42.593Z,99.90
2018-05-18T23:00:13.192Z,99.90
2018-05-18T23:02:42.694Z,99.90
2018-05-18T23:05:12.824Z,99.90
2018-05-18T23:07:43.145Z,99.90
2018-05-18T23:10:13.063Z,99.90
2018-05-18T23:12:44.126Z,99.90
2018-05-18T23:15:13.703Z,99.90
2018-05-18T23:17:43.467Z,99.90
2018-05-18T23:20:12.771Z,99.90
2018-05-18T23:22:43.655Z,99.90
2018-05-18T23:25:12.892Z,99.90
2018-05-18T23:27:42.142Z,99.90
2018-05-18T23:30:11.621Z,99.90
2018-05-18T23:32:40.895Z,99.90
2018-05-18T23:35:10.136Z,99.90
2018-05-18T23:37:39.793Z,99.90
2018-05-18T23:40:09.080Z,99.90
2018-05-18T23:42:39.407Z,99.90
2018-05-18T23:45:09.312Z,99.90
2018-05-18T23:47:38.547Z,99.90
2018-05-18T23:50:09.167Z,99.90
2018-05-18T23:52:39.163Z,99.90
2018-05-18T23:55:09.489Z,99.90
2018-05-18T23:57:39.636Z,99.90
